Motte Rimrock Reserve, California Weather observations

Data are for 10 minute period ending at time listed.
 Day   Time   Solar   Ave.   Ave.  Ave.  Vector  Max.   Baro.   Total    
  of    of     Rad.   Air    Rel.  Wind   Wind   Wind  Press.  Precip.   
Year   Day            Temp.  Hum.  Speed  Dir.   Gust                    
2015   (PST)  Kw/m2    F      %     mph   deg.    mph    mb.     in.     
-------------------------------------------------------------------------
 247    4:50   0.00   59.1    86    1.1   236     2.1   944.2    0.00 
 247    5:00   0.00   59.2    86    1.3   229     2.0   944.4    0.00 
 247    5:10   0.00   59.3    86    0.7   240     2.4   944.5    0.00 
 247    5:20   0.00   59.3    85    1.9   203     3.3   944.6    0.00 
 247    5:30   0.00   59.5    85    1.5   142     2.6   944.6    0.00 
 247    5:40   0.00   59.6    84    1.7    93     3.1   944.6    0.00 
 247    5:50   0.00   59.8    82    3.9   148     5.9   944.7    0.00 
 247    6:00   0.01   60.0    82    5.3   136     6.6   944.8    0.00 
 247    6:10   0.02   60.1    82    4.8   136     6.9   944.9    0.00 
 247    6:20   0.05   60.5    79    3.6   148     5.4   944.9    0.00 
 247    6:30   0.07   61.0    77    4.5   182     8.6   944.9    0.00 
 247    6:40   0.07   61.0    75    4.7   168     7.2   945.0    0.00 
 247    6:50   0.07   61.0    72    7.2   156     9.3   945.0    0.00 
 247    7:00   0.07   61.3    72    4.9   150     7.3   945.1    0.00 
 247    7:10   0.09   61.6    72    7.5   149    11.1   945.1    0.00 
 247    7:20   0.10   61.4    74    7.4   154     9.4   945.1    0.00 
 247    7:30   0.11   61.5    74    6.6   146    10.0   945.3    0.00 
 247    7:40   0.14   61.7    73    6.4   171     8.9   945.3    0.00 
 247    7:50   0.16   61.8    72    5.5   177     8.8   945.4    0.00 
 247    8:00   0.34   62.5    70    4.1   179     8.0   945.4    0.00 
 247    8:10   0.45   64.0    67    5.6   146     8.8   945.5    0.00 
 247    8:20   0.24   63.3    68    5.2   149    10.3   945.6    0.00 
 247    8:30   0.21   63.2    68    5.8   172     9.3   945.7    0.00 
 247    8:40   0.40   63.5    67    4.4   173     8.3   945.6    0.00 
 247    8:50   0.65   64.8    64    4.1   205    10.6   945.7    0.00 
 247    9:00   0.67   65.7    61    4.6   196     8.1   945.7    0.00 
 247    9:10   0.68   66.5    60    6.2   143    10.5   945.7    0.00 
 247    9:20   0.71   66.7    59    4.6   174    10.2   945.8    0.00 
 247    9:30   0.71   66.8    58    4.0   213     8.0   945.9    0.00 
 247    9:40   0.76   67.4    57    5.6   275    10.0   945.8    0.00 
 247    9:50   0.79   68.9    53    4.0   176    11.6   945.8    0.00 
 247   10:00   0.81   69.9    50    6.9   152    12.1   945.7    0.00 
 247   10:10   0.83   70.6    49    5.2   159     8.9   945.6    0.00 
 247   10:20   0.84   71.3    48    3.3   126     8.0   945.5    0.00 
 247   10:30   0.86   71.5    48    5.6   198    10.2   945.3    0.00 
 247   10:40   0.87   71.7    46    3.9   280     8.6   945.3    0.00 
 247   10:50   0.89   73.4    42    6.2   225    11.3   945.2    0.00 
 247   11:00   0.90   73.6    42    4.5   212    10.3   945.1    0.00 
 247   11:10   0.91   73.7    40    7.3   162    12.1   945.0    0.00 
 247   11:20   0.92   74.2    40    4.9   259    10.0   945.0    0.00 
 247   11:30   0.92   75.7    35    6.6   182    11.9   944.8    0.00 
 247   11:40   0.92   75.6    34    7.0   182    12.6   944.6    0.00 
 247   11:50   0.92   75.7    34    5.3   174    14.1   944.5    0.00 
 247   12:00   0.93   77.3    32    5.3   171    11.4   944.3    0.00 
 247   12:10   0.93   77.8    30    4.8   177    15.0   944.3    0.00 
 247   12:20   0.92   79.7    29    4.0   140    10.4   944.2    0.00 
 247   12:30   0.92   78.5    28    7.3   173    11.5   944.1    0.00 
 247   12:40   0.91   78.7    27    6.5   156    12.3   943.9    0.00 
 247   12:50   0.90   79.0    28    6.0   137    12.1   943.8    0.00 
 247   13:00   0.89   80.4    27    8.4   142    14.7   943.6    0.00 
 247   13:10   0.87   80.1    26    6.6   145    12.3   943.5    0.00 
 247   13:20   0.83   80.8    25    7.9   123    17.3   943.4    0.00 
 247   13:30   0.83   80.5    26    7.0   153    12.9   943.3    0.00 
 247   13:40   0.81   81.2    26    8.3   203    17.1   943.1    0.00 
 247   13:50   0.79   81.0    26    5.3   183    11.0   943.0    0.00 
 247   14:00   0.77   81.6    26    4.6   245    13.9   942.9    0.00 
 247   14:10   0.74   80.9    30    6.7   330    13.2   942.7    0.00 
 247   14:20   0.72   81.2    30    3.9   280     8.3   942.7    0.00 
 247   14:30   0.69   80.9    32    8.1   305    15.6   942.5    0.00 
 247   14:40   0.66   80.8    33    9.7   305    18.3   942.4    0.00 
 247   14:50   0.63   80.0    35   13.8   313    18.9   942.4    0.00 
 247   15:00   0.61   80.3    35    9.8   308    15.3   942.5    0.00 
 247   15:10   0.58   79.7    36   10.7   309    16.7   942.5    0.00 
 247   15:20   0.54   80.2    35   11.2   304    18.0   942.5    0.00 
 247   15:30   0.51   80.1    35   10.1   305    16.7   942.5    0.00 
 247   15:40   0.48   79.8    35    9.7   306    14.1   942.5    0.00 
 247   15:50   0.44   79.9    36   11.4   313    15.6   942.5    0.00 
 247   16:00   0.41   78.9    38   12.6   312    16.0   942.5    0.00 
 247   16:10   0.37   78.1    39    9.6   317    13.1   942.6    0.00 
 247   16:20   0.33   77.8    40   11.6   310    15.9   942.6    0.00 
 247   16:30   0.30   77.6    40   10.0   303    13.9   942.8    0.00 
 247   16:40   0.26   77.4    41    8.6   304    10.7   942.8    0.00 
 247   16:50   0.22   77.8    40    9.3   302    12.9   942.8    0.00 
 247   17:00   0.19   77.1    42    8.9   293    13.4   942.9    0.00 
 247   17:10   0.16   76.4    43    9.6   298    11.5   943.0    0.00 
 247   17:20   0.12   75.8    44    8.4   298    11.0   943.0    0.00 
 247   17:30   0.09   75.4    44    8.1   314    11.0   943.1    0.00 
 247   17:40   0.07   73.9    47   10.9   294    13.3   943.2    0.00 
 247   17:50   0.04   72.4    50   12.2   306    16.0   943.2    0.00 
 247   18:00   0.02   71.5    52   11.8   304    15.8   943.2    0.00 
 247   18:10   0.01   70.7    54   11.6   304    15.1   943.2    0.00 
 247   18:20   0.01   70.1    55   11.3   306    14.5   943.3    0.00 
 247   18:30   0.01   69.4    57   12.0   303    14.7   943.3    0.00 
 247   18:40   0.00   68.8    58   11.3   310    14.0   943.4    0.00 
 247   18:50   0.00   68.3    59   10.8   308    13.2   943.5    0.00 
 247   19:00   0.00   68.0    60   10.2   304    13.4   943.5    0.00 
 247   19:10   0.00   67.6    61   10.5   309    14.8   943.5    0.00 
 247   19:20   0.00   67.2    62   11.5   309    14.3   943.6    0.00 
 247   19:30   0.00   66.8    63   11.4   311    14.5   943.8    0.00 
 247   19:40   0.00   66.4    64    9.9   315    12.9   944.0    0.00 
 247   19:50   0.00   66.0    64    8.6   316    10.7   944.2    0.00 
 247   20:00   0.00   65.7    65    8.5   314    11.5   944.4    0.00 
 247   20:10   0.00   65.5    66    4.7   320     8.3   944.6    0.00 
 247   20:20   0.00   65.3    66    2.0   351     3.7   944.7    0.00 
 247   20:30   0.00   65.1    66    1.9   339     3.4   944.8    0.00 
 247   20:40   0.00   64.8    67    2.3   346     3.5   944.9    0.00 
 247   20:50   0.00   64.8    67    1.5   357     3.1   945.0    0.00 
 247   21:00   0.00   64.7    68    1.5     5     2.9   945.1    0.00 
 247   21:10   0.00   64.6    68    1.7   345     3.3   945.2    0.00 
 247   21:20   0.00   64.3    68    2.1   349     2.5   945.2    0.00 
 247   21:30   0.00   64.2    69    2.0    12     2.7   945.1    0.00 
 247   21:40   0.00   63.6    71    1.8    55     2.4   945.0    0.00 
 247   21:50   0.00   63.2    73    1.7    23     2.3   944.9    0.00 
 247   22:00   0.00   62.7    74    2.9    94     4.7   944.9    0.00 
 247   22:10   0.00   61.8    76    4.2   107     4.7   944.9    0.00 
 247   22:20   0.00   61.5    77    5.1   117     6.1   944.8    0.00 
 247   22:30   0.00   61.0    78    4.1   121     6.0   944.8    0.00 
 247   22:40   0.00   60.8    79    2.7   138     4.0   944.8    0.00 
 247   22:50   0.00   60.5    80    3.6   150     5.2   944.6    0.00 
 247   23:00   0.00   59.9    81    4.7   153     6.1   944.6    0.00 
 247   23:10   0.00   59.4    83    5.1   160     6.6   944.6    0.00 
 247   23:20   0.00   59.2    84    4.0   167     5.8   944.7    0.00 
 247   23:30   0.00   59.1    84    2.8   176     3.7   944.7    0.00 
 247   23:40   0.00   59.0    85    2.7   178     3.4   944.7    0.00 
 247   23:50   0.00   58.9    85    1.2   210     2.1   944.6    0.00 
 248    0:00   0.00   59.1    85    1.8   286     2.9   944.6    0.00 
 248    0:10   0.00   60.2    82    3.2   298     4.5   944.5    0.00 
 248    0:20   0.00   60.2    79    5.8   306     8.8   944.5    0.00 
 248    0:30   0.00   60.0    79    8.3   310     9.7   944.4    0.00 
 248    0:40   0.00   60.1    78    9.2   309    11.2   944.4    0.00 
 248    0:50   0.00   60.1    79    9.6   313    11.5   944.4    0.00 
 248    1:00   0.00   59.8    80    9.2   318    11.2   944.4    0.00 
 248    1:10   0.00   59.2    81    6.8   327     7.9   944.6    0.00 
 248    1:20   0.00   58.7    82    5.9   329     6.9   944.7    0.00 
 248    1:30   0.00   59.0    82    4.8   348     5.9   944.6    0.00 
 248    1:40   0.00   59.7    81    4.0    24     5.1   944.6    0.00 
 248    1:50   0.00   59.3    82    3.4    44     4.0   944.6    0.00 
 248    2:00   0.00   58.9    82    2.8    51     3.4   944.6    0.00 
 248    2:10   0.00   58.8    83    3.1    24     4.5   944.6    0.00 
 248    2:20   0.00   59.3    83    2.8    17     4.5   944.6    0.00 
 248    2:30   0.00   59.3    83    2.4    43     3.0   944.5    0.00 
 248    2:40   0.00   58.9    84    1.2    75     2.0   944.4    0.00 
 248    2:50   0.00   57.8    85    1.1   141     2.0   944.3    0.00 
 248    3:00   0.00   57.3    86    0.5   227     2.1   944.4    0.00 
 248    3:10   0.00   57.2    86    2.3   264     2.7   944.3    0.00 
 248    3:20   0.00   57.2    87    1.0   226     2.2   944.2    0.00 
 248    3:30   0.00   57.2    87    0.7   192     1.0   944.2    0.00 
 248    3:40   0.00   57.0    87    0.9   196     1.6   944.2    0.00 
 248    3:50   0.00   57.2    86    1.5   212     2.2   944.2    0.00 
 248    4:00   0.00   56.9    87    1.7   266     2.3   944.3    0.00 
 248    4:10   0.00   57.0    87    0.8   265     1.2   944.3    0.00 
 248    4:20   0.00   57.1    87    0.1   265     0.6   944.3    0.00 
 248    4:30   0.00   57.3    87    0.5   267     1.5   944.4    0.00 
 248    4:40   0.00   57.5    87    0.0     0     0.0   944.4    0.00 

Return to Motte Rimrock Reserve graphs page.


Western Regional Climate Center,wrcc@dri.edu